Time;durP1;ratioP1;P1;durP2;ratioP2;P2;SDS_P1;SDS_P2;PMS_P1;PMS_P2;Temp;Humidity;BMP_temperature;BMP_pressure;BME280_temperature;BME280_humidity;BME280_pressure;Samples;Min_cycle;Max_cycle;Signal;HPM_P1;HPM_P2
2021/04/14 00:00:26;;;;;;;7.75;5.60;;;;;;;14.41;59.92;101744.44;1762894;81;21204;-53
2021/04/14 00:02:55;;;;;;;10.88;6.00;;;;;;;14.41;59.88;101745.74;1760873;81;21148;-49
2021/04/14 00:05:26;;;;;;;9.25;6.15;;;;;;;14.40;59.75;101747.09;1764905;81;21306;-50
2021/04/14 00:07:54;;;;;;;10.05;6.60;;;;;;;14.39;59.64;101743.61;1762036;81;21177;-50
2021/04/14 00:10:26;;;;;;;9.38;6.00;;;;;;;14.38;59.68;101741.89;1761869;81;21203;-48
2021/04/14 00:12:54;;;;;;;9.90;5.87;;;;;;;14.37;59.67;101736.23;1708401;83;21320;-50
2021/04/14 00:15:36;;;;;;;8.80;5.95;;;;;;;14.35;59.61;101731.48;1707120;83;21168;-52
2021/04/14 00:18:05;;;;;;;8.63;5.87;;;;;;;14.34;59.56;101731.52;1707251;83;21180;-51
2021/04/14 00:20:35;;;;;;;8.55;5.87;;;;;;;14.32;59.50;101730.22;1705088;83;21176;-51
2021/04/14 00:23:04;;;;;;;8.18;6.10;;;;;;;14.29;59.50;101720.27;1703979;83;21188;-48
2021/04/14 00:25:38;;;;;;;7.15;6.17;;;;;;;14.26;59.53;101719.01;1703016;83;21157;-47
2021/04/14 00:28:07;;;;;;;9.10;5.58;;;;;;;14.27;59.50;101721.59;1703531;83;21305;-47
2021/04/14 00:30:35;;;;;;;9.55;6.00;;;;;;;14.24;59.40;101719.02;1703426;83;21304;-49
2021/04/14 00:33:03;;;;;;;6.97;6.10;;;;;;;14.23;59.45;101712.52;1667488;85;21220;-47
2021/04/14 00:35:31;;;;;;;9.98;5.92;;;;;;;14.21;59.42;101713.00;1669856;85;21185;-50
2021/04/14 00:38:00;;;;;;;9.85;5.83;;;;;;;14.18;59.57;101712.61;1705571;83;21658;-50
2021/04/14 00:40:32;;;;;;;8.88;5.83;;;;;;;14.18;59.60;101709.16;1705051;83;21138;-47
2021/04/14 00:43:00;;;;;;;8.85;6.15;;;;;;;14.17;59.64;101703.05;1691846;83;21303;-51
2021/04/14 00:45:29;;;;;;;6.72;6.03;;;;;;;14.18;59.57;101704.75;1705511;83;21138;-53
2021/04/14 00:47:58;;;;;;;11.50;6.30;;;;;;;14.19;59.53;101701.26;1675472;83;21206;-51
2021/04/14 00:50:27;;;;;;;7.78;5.97;;;;;;;14.19;59.38;101699.95;1669428;85;21660;-47
2021/04/14 00:52:56;;;;;;;7.97;5.97;;;;;;;14.18;59.51;101696.06;1667729;85;21156;-50
2021/04/14 00:55:26;;;;;;;9.40;6.33;;;;;;;14.17;59.57;101690.40;1667875;85;21656;-49
2021/04/14 00:57:55;;;;;;;8.88;5.62;;;;;;;14.18;59.64;101686.43;1667875;85;21154;-51
2021/04/14 01:00:45;;;;;;;6.85;6.05;;;;;;;14.20;59.52;101688.56;1667868;85;21651;-47
2021/04/14 01:03:31;;;;;;;8.08;6.33;;;;;;;14.20;59.49;101678.09;1658515;85;21182;-48
2021/04/14 01:06:02;;;;;;;7.62;5.90;;;;;;;14.21;59.44;101685.52;1637694;87;21381;-47
2021/04/14 01:08:30;;;;;;;9.35;5.97;;;;;;;14.20;59.50;101682.02;1671214;83;21598;-50
2021/04/14 01:10:59;;;;;;;7.30;5.72;;;;;;;14.20;59.52;101684.64;1735228;82;21172;-50
2021/04/14 01:13:27;;;;;;;8.25;5.40;;;;;;;14.20;59.62;101671.55;1726271;82;21128;-47
2021/04/14 01:15:55;;;;;;;10.43;6.33;;;;;;;14.21;59.68;101671.98;1726387;82;21148;-49
2021/04/14 01:18:29;;;;;;;7.97;5.45;;;;;;;14.21;59.67;101666.75;1736238;82;21125;-48
2021/04/14 01:20:56;;;;;;;6.95;5.67;;;;;;;14.21;59.71;101668.05;1729710;82;21185;-49
2021/04/14 01:23:29;;;;;;;7.45;5.60;;;;;;;14.20;59.75;101661.55;1732877;82;21169;-50
2021/04/14 01:25:59;;;;;;;9.95;5.95;;;;;;;14.18;59.79;101660.25;1734032;82;21186;-48
2021/04/14 01:28:37;;;;;;;7.70;5.58;;;;;;;14.18;59.78;101655.02;1728758;82;21157;-50
2021/04/14 01:31:12;;;;;;;9.38;5.95;;;;;;;14.19;59.78;101656.76;1666202;85;21621;-50
2021/04/14 01:33:39;;;;;;;7.10;5.50;;;;;;;14.19;59.63;101655.89;1664689;86;21251;-50
2021/04/14 01:36:09;;;;;;;9.85;5.67;;;;;;;14.18;59.60;101649.78;1666161;86;21159;-54
2021/04/14 01:38:38;;;;;;;10.82;5.92;;;;;;;14.17;59.61;101653.31;1665341;86;21166;-52
2021/04/14 01:41:07;;;;;;;10.00;6.28;;;;;;;14.16;59.60;101652.88;1665679;86;21277;-49
2021/04/14 01:43:35;;;;;;;8.35;5.67;;;;;;;14.14;59.65;101650.75;1664419;86;21202;-51
2021/04/14 01:46:02;;;;;;;7.72;6.20;;;;;;;14.13;59.61;101643.81;1665872;85;21262;-51
2021/04/14 01:48:30;;;;;;;10.35;6.20;;;;;;;14.14;59.55;101644.20;1693620;83;21217;-51
2021/04/14 01:50:58;;;;;;;7.80;5.97;;;;;;;14.13;59.51;101646.42;1667297;85;21190;-49
2021/04/14 01:53:26;;;;;;;7.97;6.25;;;;;;;14.12;59.46;101643.38;1675057;85;21174;-49
2021/04/14 01:55:54;;;;;;;8.78;5.45;;;;;;;14.11;59.49;101640.37;1665783;85;21171;-50
2021/04/14 01:58:23;;;;;;;7.97;6.00;;;;;;;14.10;59.51;101644.30;1678166;85;21711;-50
2021/04/14 02:00:58;;;;;;;8.60;5.80;;;;;;;14.08;59.53;101632.56;1670126;85;21178;-51
2021/04/14 02:03:31;;;;;;;10.30;6.35;;;;;;;14.07;59.54;101636.09;1677351;85;21230;-48
2021/04/14 02:06:01;;;;;;;7.70;5.65;;;;;;;14.06;59.53;101630.44;1694682;84;21233;-50
2021/04/14 02:08:29;;;;;;;10.08;5.35;;;;;;;14.04;59.57;101624.81;1668454;85;21190;-50
2021/04/14 02:10:57;;;;;;;9.00;6.55;;;;;;;14.03;59.69;101627.91;1677052;85;21202;-48
2021/04/14 02:13:30;;;;;;;9.03;5.95;;;;;;;14.03;59.72;101621.36;1693429;84;21255;-47
2021/04/14 02:15:58;;;;;;;7.70;6.28;;;;;;;14.01;59.64;101623.15;1665619;85;21183;-48
2021/04/14 02:18:26;;;;;;;7.37;5.45;;;;;;;14.00;59.70;101621.41;1674645;85;21206;-50
2021/04/14 02:20:54;;;;;;;7.95;5.80;;;;;;;13.99;59.62;101618.40;1672776;85;21583;-53
2021/04/14 02:23:26;;;;;;;9.03;6.20;;;;;;;13.96;59.65;101618.45;1670896;85;21206;-50
2021/04/14 02:25:55;;;;;;;;;;;;;;;13.95;59.71;101620.64;1691064;84;21667;-46
2021/04/14 02:28:23;;;;;;;12.05;6.92;;;;;;;13.95;59.83;101620.64;1712824;82;20158;-49
2021/04/14 02:30:51;;;;;;;8.50;6.87;;;;;;;13.95;59.79;101625.88;1739811;81;21168;-50
2021/04/14 02:33:19;;;;;;;7.28;6.10;;;;;;;13.95;59.73;101620.64;1747448;81;21156;-53
2021/04/14 02:35:48;;;;;;;7.72;6.25;;;;;;;13.95;59.69;101620.64;1741968;81;21160;-48
2021/04/14 02:38:17;;;;;;;10.18;6.42;;;;;;;13.94;59.74;101618.93;1737384;81;21783;-48
2021/04/14 02:40:45;;;;;;;10.20;6.15;;;;;;;13.94;59.76;101616.31;1749406;81;21306;-51
2021/04/14 02:43:13;;;;;;;7.83;6.20;;;;;;;13.95;59.71;101620.64;1733776;81;21301;-51
2021/04/14 02:45:41;;;;;;;10.38;6.62;;;;;;;13.96;59.67;101619.76;1745665;81;21144;-50
2021/04/14 02:48:10;;;;;;;9.30;6.20;;;;;;;13.97;59.69;101616.27;1762070;81;21145;-50
2021/04/14 02:50:38;;;;;;;8.95;6.17;;;;;;;13.98;59.63;101619.72;1756688;81;21188;-48
2021/04/14 02:53:07;;;;;;;8.88;5.87;;;;;;;13.97;59.68;101616.27;1756921;81;21728;-49
2021/04/14 02:55:35;;;;;;;8.75;5.67;;;;;;;13.98;59.67;101618.41;1767687;81;21590;-50
2021/04/14 02:58:03;;;;;;;7.80;6.42;;;;;;;13.97;59.69;101618.88;1762709;81;21542;-48
2021/04/14 03:00:32;;;;;;;10.72;6.95;;;;;;;13.98;59.66;101619.28;1763038;81;21608;-50
2021/04/14 03:03:00;;;;;;;8.43;6.35;;;;;;;14.00;59.65;101618.80;1760987;81;21156;-50
2021/04/14 03:05:33;;;;;;;6.58;5.58;;;;;;;14.01;59.59;101619.23;1762793;81;21286;-50
2021/04/14 03:08:01;;;;;;;7.85;5.60;;;;;;;14.00;59.58;101617.92;1764249;81;21160;-50
2021/04/14 03:10:30;;;;;;;7.80;5.40;;;;;;;13.99;59.57;101614.47;1765136;81;21299;-49
2021/04/14 03:13:01;;;;;;;10.95;6.45;;;;;;;13.99;59.62;101611.86;1760285;81;21632;-49
2021/04/14 03:15:36;;;;;;;8.78;6.17;;;;;;;14.01;59.63;101617.91;1767308;81;21582;-49
2021/04/14 03:18:04;;;;;;;;;;;;;;;14.01;59.54;101617.91;1709652;83;21111;-51
2021/04/14 03:20:33;;;;;;;7.50;5.67;;;;;;;14.01;59.46;101617.91;1704260;83;20148;-49
2021/04/14 03:23:01;;;;;;;7.55;5.72;;;;;;;13.97;59.58;101618.88;1701035;83;21300;-51
2021/04/14 03:25:33;;;;;;;9.95;5.92;;;;;;;13.95;59.71;101627.65;1668915;85;21184;-50
2021/04/14 03:28:02;;;;;;;9.70;5.67;;;;;;;13.92;59.82;101620.72;1702579;83;21284;-50
2021/04/14 03:30:30;;;;;;;9.55;6.47;;;;;;;13.92;59.95;101628.57;1694875;83;21186;-51
2021/04/14 03:32:58;;;;;;;9.50;6.05;;;;;;;13.89;60.01;101637.34;1701595;83;21138;-53
2021/04/14 03:35:27;;;;;;;7.87;5.92;;;;;;;13.89;60.09;101632.11;1700377;83;21151;-51
2021/04/14 03:37:55;;;;;;;8.78;5.92;;;;;;;13.90;60.11;101634.28;1673806;85;21212;-50
2021/04/14 03:40:24;;;;;;;12.63;5.90;;;;;;;13.92;60.20;101635.11;1706014;83;21170;-48
2021/04/14 03:42:53;;;;;;;6.87;5.50;;;;;;;13.93;60.25;101638.13;1694801;83;21158;-50
2021/04/14 03:45:29;;;;;;;9.93;6.28;;;;;;;13.93;60.33;101637.28;1701332;83;21192;-50
2021/04/14 03:47:56;;;;;;;6.03;4.97;;;;;;;13.94;60.35;101633.32;1699214;83;21145;-51
2021/04/14 03:50:24;;;;;;;7.62;5.83;;;;;;;13.94;60.32;101639.86;1667149;85;21160;-48
2021/04/14 03:52:52;;;;;;;8.93;5.90;;;;;;;13.92;60.35;101640.34;1666116;85;21133;-51
2021/04/14 03:55:21;;;;;;;7.92;5.33;;;;;;;13.92;60.37;101644.27;1667411;85;21180;-50
2021/04/14 03:57:49;;;;;;;7.25;6.08;;;;;;;13.91;60.45;101637.30;1666427;85;21204;-51
2021/04/14 04:00:18;;;;;;;10.85;5.97;;;;;;;13.92;60.44;101635.11;1671460;85;21189;-50
2021/04/14 04:02:46;;;;;;;6.08;5.42;;;;;;;13.94;60.52;101637.25;1703996;83;21155;-49
2021/04/14 04:05:13;;;;;;;6.00;5.12;;;;;;;13.96;60.48;101639.38;1702662;83;21225;-50
2021/04/14 04:07:42;;;;;;;8.65;5.60;;;;;;;13.94;60.45;101639.86;1668819;85;21238;-47
2021/04/14 04:10:11;;;;;;;6.95;5.42;;;;;;;13.92;60.54;101639.03;1672161;85;21331;-49
2021/04/14 04:12:40;;;;;;;8.70;5.15;;;;;;;13.89;60.64;101641.70;1703682;83;21563;-50
2021/04/14 04:15:13;;;;;;;7.60;5.90;;;;;;;13.88;60.70;101646.53;1669131;85;21229;-47
2021/04/14 04:17:41;;;;;;;6.65;5.95;;;;;;;13.84;60.80;101644.44;1666539;85;21193;-50
2021/04/14 04:20:12;;;;;;;10.05;6.62;;;;;;;13.83;60.88;101644.02;1667422;83;21190;-49
2021/04/14 04:22:40;;;;;;;9.50;5.80;;;;;;;13.84;60.91;101650.11;1772132;80;21156;-50
2021/04/14 04:25:10;;;;;;;7.15;5.40;;;;;;;13.85;60.97;101654.44;1770905;80;21318;-52
2021/04/14 04:27:38;;;;;;;8.28;4.78;;;;;;;13.84;60.89;101648.80;1770746;80;21168;-47
2021/04/14 04:30:08;;;;;;;7.95;5.40;;;;;;;13.83;60.97;101644.45;1767228;80;21160;-50
2021/04/14 04:32:35;;;;;;;7.10;5.37;;;;;;;13.84;60.97;101654.04;1770014;80;21164;-50
2021/04/14 04:35:05;;;;;;;9.93;5.62;;;;;;;13.83;61.01;101651.86;1769921;80;21164;-50
2021/04/14 04:37:33;;;;;;;7.92;5.17;;;;;;;13.81;61.07;101656.70;1775713;80;21164;-50
2021/04/14 04:40:01;;;;;;;5.50;4.80;;;;;;;13.83;61.13;101652.30;1773955;80;21605;-50
2021/04/14 04:42:29;;;;;;;6.65;5.15;;;;;;;13.85;61.22;101650.52;1756347;82;21140;-48
2021/04/14 04:44:58;;;;;;;6.22;4.97;;;;;;;13.89;61.19;101650.42;1773379;80;21565;-52
2021/04/14 04:47:26;;;;;;;7.55;5.72;;;;;;;13.91;61.08;101655.61;1765305;80;21589;-49
2021/04/14 04:49:54;;;;;;;6.58;5.37;;;;;;;13.93;61.02;101655.13;1763091;81;21117;-48
2021/04/14 04:52:22;;;;;;;8.88;5.00;;;;;;;13.95;60.99;101655.96;1765869;81;21172;-49
2021/04/14 04:54:50;;;;;;;5.95;5.15;;;;;;;13.97;61.08;101658.13;1767552;81;21168;-51
2021/04/14 04:57:18;;;;;;;7.85;6.08;;;;;;;13.99;61.00;101657.65;1760488;81;21541;-51
2021/04/14 04:59:46;;;;;;;7.67;5.22;;;;;;;14.02;60.95;101658.88;1769096;81;21148;-47
2021/04/14 05:02:14;;;;;;;6.60;5.50;;;;;;;14.06;60.80;101657.91;1756700;81;21569;-51
2021/04/14 05:04:42;;;;;;;6.35;4.87;;;;;;;14.08;60.73;101658.73;1763501;81;21141;-48
2021/04/14 05:07:09;;;;;;;8.83;5.05;;;;;;;14.10;60.68;101656.08;1763476;81;21597;-50
2021/04/14 05:09:37;;;;;;;6.45;5.25;;;;;;;14.11;60.54;101660.00;1763175;81;21159;-47
2021/04/14 05:12:07;;;;;;;7.70;4.70;;;;;;;14.11;60.61;101660.00;1766125;81;21554;-47
2021/04/14 05:14:35;;;;;;;8.78;5.55;;;;;;;14.14;60.52;101652.06;1763106;81;21106;-48
2021/04/14 05:17:05;;;;;;;7.28;5.20;;;;;;;14.16;60.51;101651.58;1759491;81;21154;-50
2021/04/14 05:19:33;;;;;;;7.37;5.10;;;;;;;14.16;60.41;101646.34;1764943;81;21318;-50
2021/04/14 05:22:02;;;;;;;6.53;5.17;;;;;;;14.16;60.45;101643.73;1762929;81;21137;-52
2021/04/14 05:24:29;;;;;;;6.72;5.00;;;;;;;14.18;60.27;101647.64;1763481;81;21152;-50
2021/04/14 05:26:57;;;;;;;6.17;4.58;;;;;;;14.19;60.32;101643.67;1762083;81;21311;-50
2021/04/14 05:29:25;;;;;;;7.67;5.20;;;;;;;14.22;60.26;101635.73;1761306;81;21152;-49
2021/04/14 05:31:53;;;;;;;6.75;5.47;;;;;;;14.26;60.17;101638.69;1767406;81;21144;-46
2021/04/14 05:34:22;;;;;;;5.42;4.90;;;;;;;14.28;60.07;101631.70;1761525;81;21148;-50
2021/04/14 05:36:52;;;;;;;7.67;5.05;;;;;;;14.32;59.89;101639.89;1760625;81;21565;-50
2021/04/14 05:39:20;;;;;;;5.93;4.77;;;;;;;14.31;59.81;101632.95;1764673;81;21137;-47
2021/04/14 05:41:48;;;;;;;5.25;4.72;;;;;;;14.35;59.99;101633.73;1756619;81;21173;-50
2021/04/14 05:44:17;;;;;;;5.45;4.95;;;;;;;14.38;59.90;101631.92;1761984;81;21605;-47
2021/04/14 05:46:46;;;;;;;7.53;5.12;;;;;;;14.42;59.69;101636.63;1757644;81;21601;-48
2021/04/14 05:49:16;;;;;;;8.00;5.58;;;;;;;14.44;59.72;101638.33;1760389;81;21152;-47
2021/04/14 05:51:45;;;;;;;5.90;4.95;;;;;;;14.47;59.58;101636.92;1763605;81;21161;-49
2021/04/14 05:54:13;;;;;;;12.65;5.17;;;;;;;14.47;59.44;101633.00;1763320;81;21160;-50
2021/04/14 05:56:41;;;;;;;5.15;4.65;;;;;;;14.47;59.38;101635.62;1765012;81;21125;-51
2021/04/14 05:59:11;;;;;;;5.53;4.65;;;;;;;14.45;59.52;101637.85;1765128;81;21152;-47
2021/04/14 06:01:43;;;;;;;6.20;4.78;;;;;;;14.43;59.53;101632.66;1766121;81;21157;-51
2021/04/14 06:04:09;;;;;;;5.12;4.53;;;;;;;14.41;59.58;101623.11;1756398;81;21601;-53
2021/04/14 06:06:37;;;;;;;6.65;5.10;;;;;;;14.37;59.57;101626.27;1762883;81;21342;-50
2021/04/14 06:09:06;;;;;;;5.97;4.42;;;;;;;14.36;59.74;101625.83;1761249;81;21164;-49
2021/04/14 06:11:35;;;;;;;6.78;5.03;;;;;;;14.35;59.79;101621.51;1767194;80;21157;-51
2021/04/14 06:14:04;;;;;;;8.20;4.78;;;;;;;14.35;59.84;101623.26;1760727;81;21592;-50
2021/04/14 06:16:32;;;;;;;8.43;5.20;;;;;;;14.37;59.90;101624.08;1761204;81;21141;-50
2021/04/14 06:19:00;;;;;;;8.85;5.22;;;;;;;14.38;59.84;101619.27;1765435;81;21140;-49
2021/04/14 06:21:28;;;;;;;5.95;4.50;;;;;;;14.40;59.90;101617.04;1763824;81;21184;-52
2021/04/14 06:23:58;;;;;;;6.83;4.62;;;;;;;14.41;59.84;101620.05;1768834;81;21176;-50
2021/04/14 06:29:10;;;;;;;6.28;4.55;;;;;;;14.47;59.91;101615.98;1802147;79;22889;-48
2021/04/14 06:31:42;;;;;;;10.23;4.60;;;;;;;14.44;59.82;101608.21;1741599;82;21161;-48
2021/04/14 06:34:19;;;;;;;6.90;4.80;;;;;;;14.47;59.66;101617.28;1756814;81;21117;-48
2021/04/14 06:36:49;;;;;;;8.23;4.45;;;;;;;14.47;59.71;101618.59;1726627;83;21567;-47
2021/04/14 06:39:19;;;;;;;4.30;3.65;;;;;;;14.48;59.56;101608.98;1756472;81;21196;-48
2021/04/14 06:45:13;;;;;;;7.22;4.30;;;;;;;14.47;59.61;101608.12;1804489;79;23102;-47
2021/04/14 06:48:07;;;;;;;5.92;4.37;;;;;;;14.40;59.57;101613.11;1788811;80;21287;-50
2021/04/14 06:51:00;;;;;;;5.17;4.58;;;;;;;14.38;59.66;101610.98;1784233;80;21136;-50
2021/04/14 06:53:38;;;;;;;6.67;4.85;;;;;;;14.37;59.62;101613.61;1737777;81;21170;-48
2021/04/14 06:56:10;;;;;;;5.90;4.72;;;;;;;14.35;59.88;101618.89;1741769;81;21614;-49
2021/04/14 06:59:01;;;;;;;6.75;4.33;;;;;;;14.35;59.94;101618.89;1721943;81;21620;-49
2021/04/14 07:01:46;;;;;;;4.28;3.87;;;;;;;14.35;59.88;101618.89;1725163;82;21132;-50
2021/04/14 07:04:29;;;;;;;5.60;4.62;;;;;;;14.37;59.80;101614.48;1727746;82;21160;-50
2021/04/14 07:06:56;;;;;;;5.92;5.25;;;;;;;14.40;59.84;101614.42;1728402;82;21163;-50
2021/04/14 07:09:42;;;;;;;10.08;4.28;;;;;;;14.44;59.66;101622.61;1696020;81;21156;-47
2021/04/14 07:12:17;;;;;;;5.97;4.00;;;;;;;14.48;59.50;101611.61;1698583;84;21208;-47
2021/04/14 07:14:53;;;;;;;5.50;4.62;;;;;;;14.55;59.31;101608.80;1829711;77;22938;-50
2021/04/14 07:17:45;;;;;;;7.70;4.83;;;;;;;14.53;59.29;101614.52;1812467;78;21141;-50
2021/04/14 07:20:28;;;;;;;7.60;4.22;;;;;;;14.56;59.22;101613.14;1727107;81;21177;-52
2021/04/14 07:23:26;;;;;;;10.63;5.67;;;;;;;14.58;59.10;101614.41;1727692;81;21308;-51
2021/04/14 07:26:15;;;;;;;8.38;4.37;;;;;;;14.59;59.00;101610.44;1722616;81;21137;-48
2021/04/14 07:29:24;;;;;;;6.17;3.67;;;;;;;14.60;58.97;101609.55;1724614;83;21164;-48
2021/04/14 07:32:26;;;;;;;5.33;4.05;;;;;;;14.58;58.90;101611.35;1726870;83;21167;-46
2021/04/14 07:35:11;;;;;;;6.08;4.65;;;;;;;14.54;58.96;101608.40;1727413;81;21138;-49
2021/04/14 07:38:10;;;;;;;5.25;3.98;;;;;;;14.51;59.01;101606.28;1728304;81;21166;-50
2021/04/14 07:40:55;;;;;;;6.33;4.10;;;;;;;14.47;59.05;101607.25;1727835;81;21182;-48
2021/04/14 07:44:02;;;;;;;7.60;3.98;;;;;;;14.43;59.18;101601.23;1711637;81;21204;-47
2021/04/14 07:46:33;;;;;;;4.35;3.52;;;;;;;14.36;59.37;101603.58;1726684;81;21212;-49
2021/04/14 07:49:02;;;;;;;4.10;3.65;;;;;;;14.33;59.52;101606.28;1727499;81;21210;-51
2021/04/14 07:51:30;;;;;;;4.90;4.40;;;;;;;14.32;59.66;101601.93;1695053;81;21171;-49
2021/04/14 07:54:07;;;;;;;6.92;4.30;;;;;;;14.34;59.84;101601.92;1727497;81;21194;-51
2021/04/14 07:56:48;;;;;;;4.22;3.60;;;;;;;14.36;59.88;101600.95;1747498;78;21638;-49
2021/04/14 07:59:30;;;;;;;4.80;3.27;;;;;;;14.37;59.71;101600.08;1809623;78;21156;-50
2021/04/14 08:02:02;;;;;;;7.10;3.83;;;;;;;14.39;59.69;101599.59;1811447;78;21141;-47
2021/04/14 08:04:37;;;;;;;7.10;3.90;;;;;;;14.39;59.63;101600.90;1775802;80;21612;-51
2021/04/14 08:07:15;;;;;;;7.12;3.83;;;;;;;14.39;59.65;101590.87;1739238;82;21618;-54
2021/04/14 08:10:11;;;;;;;4.00;3.60;;;;;;;14.45;59.73;101588.97;1771546;79;22966;-47
2021/04/14 08:13:04;;;;;;;6.15;3.50;;;;;;;14.42;59.76;101590.81;1706339;83;21171;-49
2021/04/14 08:15:43;;;;;;;4.95;4.00;;;;;;;14.39;59.88;101587.81;1740462;82;21172;-52
2021/04/14 08:18:32;;;;;;;7.67;3.45;;;;;;;14.35;60.08;101584.85;1739510;82;21155;-47
2021/04/14 08:21:17;;;;;;;8.18;3.90;;;;;;;14.29;60.20;101582.39;1741035;82;21180;-47
2021/04/14 08:23:57;;;;;;;6.00;3.40;;;;;;;14.31;60.13;101580.59;1735679;82;21169;-49
2021/04/14 08:26:25;;;;;;;5.40;3.27;;;;;;;14.32;60.10;101579.67;1681873;84;21216;-52
2021/04/14 08:28:55;;;;;;;5.60;3.67;;;;;;;14.32;60.09;101574.91;1706675;84;21188;-47
2021/04/14 08:31:36;;;;;;;4.67;3.40;;;;;;;14.29;60.17;101575.84;1707290;84;21313;-50
2021/04/14 08:34:11;;;;;;;4.30;2.95;;;;;;;14.25;60.13;101570.23;1704972;84;21628;-50
2021/04/14 08:36:59;;;;;;;3.50;3.20;;;;;;;14.25;60.31;101567.61;1771604;79;23096;-47
2021/04/14 08:39:39;;;;;;;3.98;3.55;;;;;;;14.17;60.53;101568.25;1688827;82;21163;-51
2021/04/14 08:42:22;;;;;;;4.53;3.33;;;;;;;14.15;60.64;101571.35;1671019;84;21207;-50
2021/04/14 08:44:56;;;;;;;4.42;3.22;;;;;;;14.13;60.75;101566.60;1683576;84;21321;-47
2021/04/14 08:47:28;;;;;;;6.95;3.95;;;;;;;14.11;60.86;101564.47;1688235;84;21166;-51
2021/04/14 08:50:03;;;;;;;4.78;2.90;;;;;;;14.11;60.92;101564.91;1684534;84;21579;-49
2021/04/14 08:52:40;;;;;;;4.75;2.80;;;;;;;14.11;61.00;101563.16;1680238;84;21310;-48
2021/04/14 08:55:09;;;;;;;6.75;3.25;;;;;;;14.10;61.06;101560.11;1663344;84;21148;-50
2021/04/14 08:57:39;;;;;;;5.08;3.60;;;;;;;14.15;60.93;101556.95;1686966;84;21162;-48
2021/04/14 09:00:10;;;;;;;7.03;3.58;;;;;;;14.17;60.93;101546.00;1684623;84;21216;-50
2021/04/14 09:02:39;;;;;;;7.40;3.77;;;;;;;14.20;61.03;101543.30;1684995;84;21160;-51
2021/04/14 09:05:11;;;;;;;5.90;3.17;;;;;;;14.25;61.08;101545.36;1684209;84;21151;-50
2021/04/14 09:07:39;;;;;;;5.83;2.90;;;;;;;14.32;61.06;101537.78;1661199;84;21179;-47
2021/04/14 09:10:10;;;;;;;4.03;3.58;;;;;;;14.40;60.88;101530.63;1681164;84;21333;-50
2021/04/14 09:12:48;;;;;;;9.48;3.67;;;;;;;14.49;60.36;101529.07;1683862;84;21160;-48
2021/04/14 09:15:16;;;;;;;6.22;2.77;;;;;;;14.54;60.12;101523.28;1676184;84;21695;-48
2021/04/14 09:17:45;;;;;;;5.55;2.72;;;;;;;14.60;59.83;101520.50;1686647;83;21163;-51
2021/04/14 09:20:25;;;;;;;6.28;2.70;;;;;;;14.67;59.53;101523.83;1683512;84;21124;-52
2021/04/14 09:23:08;;;;;;;5.37;2.98;;;;;;;14.77;59.28;101514.81;1803599;79;23034;-49
2021/04/14 09:25:49;;;;;;;4.80;3.62;;;;;;;14.78;59.15;101513.03;1777370;80;21184;-51
2021/04/14 09:28:36;;;;;;;7.50;3.40;;;;;;;14.82;58.92;101512.08;1745813;81;21197;-48
2021/04/14 09:31:10;;;;;;;9.23;3.55;;;;;;;14.84;58.77;101502.42;1651525;86;21148;-50
2021/04/14 09:33:47;;;;;;;4.40;2.92;;;;;;;14.88;58.60;101502.73;1643236;86;21157;-50
2021/04/14 09:36:32;;;;;;;6.80;3.30;;;;;;;14.93;58.53;101499.52;1771535;79;23078;-48
2021/04/14 09:39:10;;;;;;;8.65;3.35;;;;;;;14.91;58.68;101500.02;1741541;82;21192;-49
2021/04/14 09:41:38;;;;;;;6.37;3.58;;;;;;;14.93;58.58;101497.77;1743882;82;21161;-47
2021/04/14 09:44:20;;;;;;;7.08;3.15;;;;;;;14.98;58.29;101499.80;1744559;82;21294;-51
2021/04/14 09:46:56;;;;;;;9.33;3.90;;;;;;;15.03;58.21;101496.61;1776387;79;22731;-52
2021/04/14 09:49:41;;;;;;;11.08;3.50;;;;;;;15.00;58.12;101502.40;1736454;82;21157;-47
2021/04/14 09:52:26;;;;;;;6.42;3.12;;;;;;;15.00;58.03;101506.33;1732456;82;21180;-48
2021/04/14 09:55:14;;;;;;;6.67;3.17;;;;;;;14.98;57.95;101493.72;1734214;82;21137;-53
2021/04/14 09:57:44;;;;;;;7.50;3.45;;;;;;;14.98;57.96;101496.34;1732918;82;21637;-51
2021/04/14 10:00:25;;;;;;;7.85;4.33;;;;;;;14.98;57.96;101495.86;1739236;81;21121;-50
2021/04/14 10:03:00;;;;;;;8.88;4.25;;;;;;;14.98;57.95;101496.34;1740522;82;21625;-47
2021/04/14 10:05:29;;;;;;;8.88;3.67;;;;;;;14.97;57.88;101488.92;1659046;84;21265;-46
2021/04/14 10:08:03;;;;;;;6.60;3.87;;;;;;;14.96;57.91;101489.80;1654941;86;21171;-48
2021/04/14 10:10:38;;;;;;;8.63;4.50;;;;;;;14.98;57.91;101489.78;1657188;86;21215;-49
2021/04/14 10:13:10;;;;;;;7.78;5.35;;;;;;;14.99;57.83;101486.25;1658950;86;21171;-48
2021/04/14 10:15:42;;;;;;;7.65;5.05;;;;;;;15.00;57.77;101487.98;1655773;86;21194;-46
2021/04/14 10:18:26;;;;;;;12.82;6.03;;;;;;;15.01;57.76;101489.68;1662592;85;21247;-46
2021/04/14 10:21:17;;;;;;;8.28;5.58;;;;;;;15.04;57.80;101481.30;1763021;79;23083;-51
2021/04/14 10:23:46;;;;;;;13.03;6.60;;;;;;;14.99;57.78;101484.94;1650801;85;21235;-49
2021/04/14 10:26:14;;;;;;;9.73;6.67;;;;;;;14.97;57.62;101481.06;1650338;86;21307;-48
2021/04/14 10:28:44;;;;;;;11.65;7.25;;;;;;;14.94;57.53;101478.51;1650272;86;21205;-48
2021/04/14 10:31:15;;;;;;;8.03;5.85;;;;;;;14.90;57.51;101478.19;1648334;86;21188;-51
2021/04/14 10:33:43;;;;;;;12.65;6.78;;;;;;;14.86;57.58;101477.86;1640591;86;21180;-52
2021/04/14 10:36:22;;;;;;;9.85;6.60;;;;;;;14.83;57.61;101474.03;1648579;86;21161;-52
2021/04/14 10:38:50;;;;;;;12.30;7.00;;;;;;;14.82;57.61;101468.84;1642660;86;21224;-53
2021/04/14 10:41:25;;;;;;;10.03;6.75;;;;;;;14.79;57.57;101471.09;1623807;88;21184;-51
2021/04/14 10:43:59;;;;;;;10.20;7.30;;;;;;;14.79;57.62;101464.98;1771618;79;22908;-47
2021/04/14 10:46:35;;;;;;;10.70;6.70;;;;;;;14.73;57.55;101470.40;1732790;82;21137;-47
2021/04/14 10:49:06;;;;;;;9.88;5.85;;;;;;;14.68;57.73;101468.77;1737925;82;21195;-49
2021/04/14 10:51:47;;;;;;;7.58;6.15;;;;;;;14.66;57.74;101465.33;1745846;82;21295;-49
2021/04/14 10:54:17;;;;;;;9.80;5.90;;;;;;;14.66;57.79;101466.64;1745772;82;21215;-47
2021/04/14 10:57:05;;;;;;;10.72;6.15;;;;;;;14.66;57.84;101462.71;1739301;81;21739;-51
2021/04/14 10:59:33;;;;;;;10.15;6.17;;;;;;;14.67;57.75;101465.72;1745450;82;21172;-51
2021/04/14 11:02:01;;;;;;;9.75;5.45;;;;;;;14.66;57.80;101462.71;1739355;82;21175;-48
2021/04/14 11:04:36;;;;;;;6.65;5.47;;;;;;;14.67;57.81;101456.55;1727700;82;21314;-47
2021/04/14 11:07:18;;;;;;;8.83;5.78;;;;;;;14.67;57.92;101460.48;1744382;82;21168;-50
2021/04/14 11:09:48;;;;;;;7.70;5.90;;;;;;;14.68;57.95;101455.67;1732110;82;21140;-47
2021/04/14 11:12:21;;;;;;;8.68;5.87;;;;;;;14.68;58.11;101455.67;1742751;82;21605;-51
2021/04/14 11:14:50;;;;;;;;;;;;;;;14.68;58.22;101445.63;1688297;84;21201;-47
2021/04/14 11:17:28;;;;;;;11.83;5.47;;;;;;;14.67;58.26;101450.00;1671749;85;20571;-51
2021/04/14 11:20:13;;;;;;;7.90;4.72;;;;;;;14.68;58.45;101449.12;1688902;84;21205;-47
2021/04/14 11:22:50;;;;;;;6.10;4.83;;;;;;;14.73;58.51;101441.58;1810099;79;23342;-47
2021/04/14 11:25:34;;;;;;;7.75;5.25;;;;;;;14.68;58.62;101445.19;1776956;80;21584;-49
2021/04/14 11:28:09;;;;;;;17.92;6.35;;;;;;;14.68;58.81;101436.02;1720642;83;21154;-49
2021/04/14 11:30:53;;;;;;;10.23;5.55;;;;;;;14.70;58.93;101433.34;1726040;83;21162;-49
2021/04/14 11:33:39;;;;;;;8.45;5.53;;;;;;;14.74;59.05;101431.05;1819879;77;23462;-47
2021/04/14 11:36:33;;;;;;;7.65;5.05;;;;;;;14.62;59.26;101432.27;1806998;78;21156;-50
2021/04/14 11:39:17;;;;;;;8.98;4.90;;;;;;;14.56;59.54;101421.95;1817331;78;21175;-52
2021/04/14 11:41:47;;;;;;;7.40;5.40;;;;;;;14.54;59.71;101421.59;1731850;82;21187;-48
2021/04/14 11:44:28;;;;;;;8.43;5.72;;;;;;;14.49;59.91;101419.09;1731270;83;21211;-48
2021/04/14 11:47:00;;;;;;;7.45;5.58;;;;;;;14.46;60.08;101412.64;1715098;83;21171;-50
2021/04/14 11:49:36;;;;;;;6.60;5.47;;;;;;;14.44;60.22;101413.13;1728146;83;21212;-52
2021/04/14 11:52:27;;;;;;;9.25;5.40;;;;;;;14.43;60.36;101404.85;1773169;79;22501;-48
2021/04/14 11:54:57;;;;;;;6.90;5.22;;;;;;;14.34;60.45;101404.25;1724180;82;21334;-48
2021/04/14 11:57:30;;;;;;;9.23;5.40;;;;;;;14.27;60.66;101398.28;1674551;82;21145;-50